Time;durP1;ratioP1;P1;durP2;ratioP2;P2;SDS_P1;SDS_P2;PMS_P1;PMS_P2;Temp;Humidity;BMP_temperature;BMP_pressure;BME280_temperature;BME280_humidity;BME280_pressure;Samples;Min_cycle;Max_cycle;Signal;HPM_P1;HPM_P2
2023/10/20 00:00:59;;;;;;;19.13;16.50;;;6.80;85.60;;;;;;5024318;28;20068;-63
2023/10/20 00:03:25;;;;;;;22.70;17.47;;;6.80;85.70;;;;;;5009750;28;20091;-64
2023/10/20 00:05:51;;;;;;;20.97;16.27;;;6.80;85.60;;;;;;5029210;28;20041;-64
2023/10/20 00:08:16;;;;;;;22.37;16.97;;;6.80;85.70;;;;;;5030723;28;20508;-64
2023/10/20 00:10:42;;;;;;;22.00;16.77;;;6.80;85.60;;;;;;5017513;28;20049;-64
2023/10/20 00:13:08;;;;;;;22.67;16.37;;;6.80;85.60;;;;;;5030129;28;20041;-64
2023/10/20 00:15:35;;;;;;;20.57;16.03;;;6.80;85.60;;;;;;5030646;28;20045;-64
2023/10/20 00:18:02;;;;;;;23.20;17.03;;;6.80;85.60;;;;;;5029627;28;20045;-63
2023/10/20 00:20:28;;;;;;;23.33;17.60;;;6.80;85.50;;;;;;5025534;28;20075;-64
2023/10/20 00:22:55;;;;;;;24.87;17.43;;;6.80;85.60;;;;;;5030288;28;20116;-64
2023/10/20 00:25:21;;;;;;;22.20;17.27;;;6.80;85.60;;;;;;5029650;28;20053;-63
2023/10/20 00:27:47;;;;;;;24.63;16.87;;;6.80;85.70;;;;;;5029909;28;20041;-64
2023/10/20 00:30:13;;;;;;;23.23;17.13;;;6.80;85.70;;;;;;5022375;28;20042;-64
2023/10/20 00:32:42;;;;;;;23.83;16.73;;;6.80;85.70;;;;;;5028100;28;20130;-64
2023/10/20 00:35:09;;;;;;;24.83;17.23;;;6.80;85.60;;;;;;5029681;28;20067;-64
2023/10/20 00:37:36;;;;;;;23.47;16.23;;;6.80;85.60;;;;;;5030310;28;20087;-64
2023/10/20 00:40:10;;;;;;;21.87;15.73;;;6.80;85.50;;;;;;5029897;28;20282;-64
2023/10/20 00:42:36;;;;;;;22.20;16.00;;;6.80;85.60;;;;;;5026508;28;20393;-64
2023/10/20 00:45:02;;;;;;;25.57;17.63;;;6.80;85.60;;;;;;5018791;28;20049;-64
2023/10/20 00:47:29;;;;;;;23.53;16.73;;;6.80;85.60;;;;;;5029523;28;20049;-64
2023/10/20 00:49:55;;;;;;;21.23;15.70;;;6.90;85.60;;;;;;5029934;28;20365;-64
2023/10/20 00:52:23;;;;;;;20.60;16.13;;;6.80;85.60;;;;;;5024181;28;20129;-63
2023/10/20 00:54:50;;;;;;;21.97;16.50;;;6.80;85.60;;;;;;5022362;28;20543;-64
2023/10/20 00:57:18;;;;;;;21.97;16.00;;;6.80;85.60;;;;;;5025894;28;20373;-64
2023/10/20 00:59:44;;;;;;;21.90;16.30;;;6.80;85.60;;;;;;5029954;28;20042;-64
2023/10/20 01:02:10;;;;;;;21.40;15.43;;;6.80;85.60;;;;;;5029952;28;20546;-64
2023/10/20 01:04:36;;;;;;;23.43;16.20;;;6.90;85.70;;;;;;5030360;28;20116;-64
2023/10/20 01:07:02;;;;;;;21.17;16.57;;;6.80;85.70;;;;;;5029048;28;20140;-63
2023/10/20 01:09:28;;;;;;;25.97;15.93;;;6.80;85.70;;;;;;5029106;28;20048;-64
2023/10/20 01:11:55;;;;;;;25.03;17.50;;;6.80;85.70;;;;;;5028559;28;20088;-64
2023/10/20 01:14:21;;;;;;;25.37;18.60;;;6.80;85.70;;;;;;5030060;28;20124;-64
2023/10/20 01:16:47;;;;;;;28.17;17.90;;;6.80;85.80;;;;;;5028104;28;20124;-64
2023/10/20 01:19:13;;;;;;;27.60;18.23;;;6.80;85.80;;;;;;5030040;28;20036;-64
2023/10/20 01:21:39;;;;;;;29.77;18.63;;;6.90;85.90;;;;;;5024395;28;20041;-64
2023/10/20 01:24:05;;;;;;;30.97;19.30;;;6.80;85.90;;;;;;5026584;28;20396;-64
2023/10/20 01:26:31;;;;;;;26.87;19.73;;;6.80;85.90;;;;;;5029959;28;20041;-64
2023/10/20 01:28:57;;;;;;;30.10;21.10;;;6.80;86.00;;;;;;5029583;28;20088;-64
2023/10/20 01:31:23;;;;;;;33.40;21.33;;;6.90;86.00;;;;;;5021484;28;20490;-64
2023/10/20 01:33:49;;;;;;;32.73;21.43;;;6.90;86.10;;;;;;5029783;28;20045;-64
2023/10/20 01:36:15;;;;;;;35.53;21.67;;;6.80;86.10;;;;;;5011120;28;20071;-64
2023/10/20 01:38:41;;;;;;;36.13;22.60;;;6.80;86.10;;;;;;5009433;28;20053;-64
2023/10/20 01:41:07;;;;;;;37.10;24.60;;;6.80;86.20;;;;;;5016182;28;20114;-64
2023/10/20 01:43:33;;;;;;;36.53;23.20;;;6.80;86.20;;;;;;5029068;28;20571;-64
2023/10/20 01:46:01;;;;;;;41.57;22.87;;;6.80;86.30;;;;;;5028845;28;20040;-63
2023/10/20 01:48:27;;;;;;;41.53;23.87;;;6.80;86.30;;;;;;5028788;28;20470;-64
2023/10/20 01:50:53;;;;;;;39.00;24.77;;;6.80;86.50;;;;;;5025204;28;20081;-64
2023/10/20 01:53:18;;;;;;;40.07;25.27;;;6.80;86.40;;;;;;5016913;28;20045;-64
2023/10/20 01:55:51;;;;;;;43.97;27.30;;;6.80;86.50;;;;;;5031325;28;20037;-65
2023/10/20 01:58:20;;;;;;;49.50;26.93;;;6.80;86.60;;;;;;5028992;28;20443;-64
2023/10/20 02:00:50;;;;;;;44.87;27.00;;;6.90;86.60;;;;;;5028185;28;20069;-64
2023/10/20 02:03:16;;;;;;;42.07;27.17;;;6.80;86.70;;;;;;5027926;28;20088;-64
2023/10/20 02:05:41;;;;;;;47.80;29.00;;;6.90;86.60;;;;;;5028076;28;20123;-64
2023/10/20 02:08:10;;;;;;;48.63;27.87;;;6.80;86.70;;;;;;5028654;28;20053;-64
2023/10/20 02:10:36;;;;;;;46.53;29.23;;;6.90;86.80;;;;;;5015671;28;20040;-64
2023/10/20 02:13:03;;;;;;;53.40;30.37;;;6.80;86.70;;;;;;5027551;28;20029;-63
2023/10/20 02:15:29;;;;;;;52.57;30.10;;;6.80;86.80;;;;;;5027025;28;20557;-64
2023/10/20 02:17:58;;;;;;;49.73;28.10;;;6.80;86.80;;;;;;5026652;28;20120;-64
2023/10/20 02:20:25;;;;;;;55.60;29.77;;;6.90;86.90;;;;;;5028705;28;20404;-64
2023/10/20 02:22:52;;;;;;;51.73;30.10;;;6.80;86.80;;;;;;5013971;28;20045;-64
2023/10/20 02:25:18;;;;;;;57.43;31.20;;;6.90;86.90;;;;;;5023600;28;20123;-64
2023/10/20 02:27:45;;;;;;;60.17;32.60;;;6.80;86.90;;;;;;5027398;28;20041;-64
2023/10/20 02:30:14;;;;;;;57.50;31.87;;;6.80;86.90;;;;;;5020295;28;20056;-64
2023/10/20 02:32:40;;;;;;;55.27;32.30;;;6.80;86.90;;;;;;5022391;28;20049;-64
2023/10/20 02:35:07;;;;;;;56.87;33.20;;;6.80;86.90;;;;;;5019611;28;20048;-64
2023/10/20 02:37:33;;;;;;;55.77;33.10;;;6.80;87.00;;;;;;5019979;28;20120;-64
2023/10/20 02:39:59;;;;;;;61.57;33.90;;;6.80;87.00;;;;;;5008940;28;20053;-64
2023/10/20 02:42:25;;;;;;;61.40;34.37;;;6.80;87.10;;;;;;5025724;28;20133;-64
2023/10/20 02:44:50;;;;;;;68.07;35.67;;;6.80;87.10;;;;;;5028177;28;20116;-64
2023/10/20 02:47:16;;;;;;;66.70;35.57;;;6.80;87.10;;;;;;5023904;28;20365;-64
2023/10/20 02:49:42;;;;;;;67.50;37.13;;;6.80;87.10;;;;;;5027592;28;20052;-64
2023/10/20 02:52:07;;;;;;;67.80;37.27;;;6.80;87.10;;;;;;5018159;28;20494;-64
2023/10/20 02:54:34;;;;;;;75.63;36.87;;;6.80;87.10;;;;;;5018877;28;20037;-64
2023/10/20 02:57:00;;;;;;;70.87;37.00;;;6.80;87.20;;;;;;5033193;28;20056;-64
2023/10/20 02:59:26;;;;;;;67.37;37.23;;;6.80;87.20;;;;;;5027108;28;20124;-64
2023/10/20 03:01:54;;;;;;;73.27;39.40;;;6.70;87.20;;;;;;5026787;28;20111;-64
2023/10/20 03:04:19;;;;;;;67.17;37.83;;;6.80;87.20;;;;;;5026655;28;20477;-64
2023/10/20 03:06:46;;;;;;;78.47;39.97;;;6.70;87.20;;;;;;5019477;28;20091;-64
2023/10/20 03:09:13;;;;;;;70.67;38.20;;;6.70;87.20;;;;;;5027740;28;20052;-64
2023/10/20 03:11:39;;;;;;;70.40;36.70;;;6.70;87.30;;;;;;5026852;28;20045;-65
2023/10/20 03:14:05;;;;;;;71.50;38.60;;;6.70;87.30;;;;;;5016770;28;20038;-64
2023/10/20 03:16:31;;;;;;;71.40;38.73;;;6.70;87.30;;;;;;5022007;28;20049;-64
2023/10/20 03:18:56;;;;;;;70.57;38.00;;;6.60;87.30;;;;;;5028009;28;20694;-64
2023/10/20 03:21:23;;;;;;;69.27;38.13;;;6.60;87.20;;;;;;5026954;28;20537;-64
2023/10/20 03:23:49;;;;;;;62.40;37.37;;;6.60;87.30;;;;;;5027303;28;20053;-64
2023/10/20 03:26:14;;;;;;;66.87;37.20;;;6.60;87.30;;;;;;5027656;28;20042;-65
2023/10/20 03:28:40;;;;;;;68.20;37.70;;;6.60;87.30;;;;;;5018518;28;20084;-64
2023/10/20 03:31:07;;;;;;;64.00;36.47;;;6.60;87.30;;;;;;5014060;28;20467;-64
2023/10/20 03:33:33;;;;;;;68.47;35.47;;;6.60;87.20;;;;;;5018951;28;20042;-64
2023/10/20 03:36:00;;;;;;;65.87;35.87;;;6.60;87.20;;;;;;5007957;28;20049;-64
2023/10/20 03:38:26;;;;;;;60.03;35.03;;;6.60;87.20;;;;;;5016265;28;20056;-65
2023/10/20 03:40:51;;;;;;;62.60;35.90;;;6.60;87.20;;;;;;5021210;28;20038;-64
2023/10/20 03:43:17;;;;;;;57.80;33.60;;;6.60;87.10;;;;;;5021044;28;20044;-64
2023/10/20 03:45:56;;;;;;;61.77;36.00;;;6.60;87.10;;;;;;5014850;28;20893;-64
2023/10/20 03:48:23;;;;;;;63.10;35.00;;;6.60;87.10;;;;;;5023375;28;20352;-65
2023/10/20 03:50:51;;;;;;;59.67;34.00;;;6.60;87.10;;;;;;5008780;28;20042;-64
2023/10/20 03:53:27;;;;;;;57.77;36.23;;;6.60;87.10;;;;;;5010343;28;20500;-64
2023/10/20 03:56:04;;;;;;;59.40;33.90;;;6.60;87.00;;;;;;5029719;28;20115;-63
2023/10/20 03:58:30;;;;;;;52.17;32.10;;;6.60;87.00;;;;;;5030416;28;20167;-64
2023/10/20 04:00:58;;;;;;;51.20;32.53;;;6.60;86.90;;;;;;5030551;28;20124;-64
2023/10/20 04:03:27;;;;;;;48.53;31.50;;;6.60;87.00;;;;;;5030359;28;20077;-63
2023/10/20 04:05:53;;;;;;;46.60;29.30;;;6.60;86.90;;;;;;5029968;28;20118;-64
2023/10/20 04:08:19;;;;;;;43.70;30.37;;;6.60;86.90;;;;;;5029560;28;20057;-64
2023/10/20 04:10:45;;;;;;;42.53;28.43;;;6.60;86.80;;;;;;5010472;28;20112;-64
2023/10/20 04:13:12;;;;;;;41.13;28.03;;;6.60;86.70;;;;;;5026143;28;20041;-64
2023/10/20 04:15:39;;;;;;;41.00;27.67;;;6.60;86.70;;;;;;5030653;28;20384;-64
2023/10/20 04:18:05;;;;;;;44.60;31.43;;;6.60;86.60;;;;;;5029632;28;20041;-64
2023/10/20 04:20:36;;;;;;;39.47;26.40;;;6.60;86.50;;;;;;5030021;28;20037;-64
2023/10/20 04:23:01;;;;;;;37.60;23.93;;;6.60;86.40;;;;;;5024198;28;20053;-64
2023/10/20 04:25:28;;;;;;;36.50;24.50;;;6.60;86.40;;;;;;5010523;28;20038;-64
2023/10/20 04:27:57;;;;;;;35.87;22.73;;;6.60;86.40;;;;;;5018340;28;20402;-64
2023/10/20 05:00:37;;;;;;;23.30;17.03;;;6.70;85.40;;;;;;5026628;28;20431;-65
2023/10/20 05:05:39;;;;;;;20.17;14.83;;;6.70;85.30;;;;;;5026655;28;20147;-64
2023/10/20 05:08:16;;;;;;;20.13;15.70;;;6.70;85.10;;;;;;5022159;28;20077;-64
2023/10/20 05:10:43;;;;;;;18.93;14.77;;;6.70;85.10;;;;;;5027353;28;20423;-65
2023/10/20 05:13:09;;;;;;;19.27;14.67;;;6.70;85.00;;;;;;5022426;28;20069;-64
2023/10/20 05:15:38;;;;;;;24.13;14.67;;;6.70;85.10;;;;;;5026688;28;20436;-64
2023/10/20 05:18:23;;;;;;;17.10;13.50;;;6.70;85.10;;;;;;5028247;28;20532;-64
2023/10/20 05:20:48;;;;;;;20.17;17.10;;;6.80;85.00;;;;;;5028995;28;20546;-64
2023/10/20 05:23:14;;;;;;;18.83;13.37;;;6.80;85.00;;;;;;5018105;28;20030;-64
2023/10/20 05:25:47;;;;;;;19.03;13.43;;;6.70;85.00;;;;;;5019157;28;20075;-64
2023/10/20 05:28:15;;;;;;;19.70;15.90;;;6.80;84.90;;;;;;5029319;28;20048;-64
2023/10/20 05:30:43;;;;;;;15.83;11.70;;;6.80;84.70;;;;;;5016214;28;20112;-64
2023/10/20 05:33:09;;;;;;;17.17;11.80;;;6.80;84.60;;;;;;5017736;28;20077;-64
2023/10/20 05:35:35;;;;;;;19.57;12.03;;;6.80;84.60;;;;;;5029035;28;20115;-64
2023/10/20 05:38:00;;;;;;;15.60;11.60;;;6.80;84.70;;;;;;5028796;28;20041;-66
2023/10/20 05:40:27;;;;;;;15.17;11.10;;;6.80;84.70;;;;;;5024200;28;20464;-65
2023/10/20 05:42:52;;;;;;;13.67;10.43;;;6.80;84.60;;;;;;5025134;28;20041;-65
2023/10/20 05:45:20;;;;;;;15.90;10.50;;;6.80;84.50;;;;;;5029254;28;20103;-65
2023/10/20 05:47:46;;;;;;;12.90;9.50;;;6.80;84.50;;;;;;5028631;28;20502;-65
2023/10/20 05:50:13;;;;;;;16.40;11.13;;;6.80;84.50;;;;;;5020126;28;20033;-65
2023/10/20 05:52:39;;;;;;;18.30;10.17;;;6.80;84.40;;;;;;5028488;28;20038;-65
2023/10/20 05:55:06;;;;;;;13.07;8.83;;;6.80;84.30;;;;;;5027762;28;20037;-65
2023/10/20 05:57:31;;;;;;;12.07;8.97;;;6.80;84.30;;;;;;5028285;28;20045;-65
2023/10/20 06:00:00;;;;;;;14.73;8.83;;;6.80;84.30;;;;;;5028944;28;20045;-64
2023/10/20 06:02:27;;;;;;;11.83;8.60;;;6.80;84.30;;;;;;5028530;28;20100;-65
2023/10/20 06:04:53;;;;;;;12.23;9.53;;;6.90;84.40;;;;;;5027713;28;20128;-65
2023/10/20 06:07:19;;;;;;;14.73;7.73;;;6.90;84.30;;;;;;5028246;28;20144;-65
2023/10/20 06:09:44;;;;;;;11.07;7.20;;;6.90;84.30;;;;;;5027544;28;20472;-65
2023/10/20 06:12:11;;;;;;;12.73;8.40;;;6.90;84.30;;;;;;5028470;28;20037;-65
2023/10/20 06:14:37;;;;;;;8.93;7.37;;;6.90;84.30;;;;;;5023954;28;20133;-65
2023/10/20 06:17:03;;;;;;;8.37;6.57;;;6.90;84.40;;;;;;5022906;28;20495;-65
2023/10/20 06:19:29;;;;;;;9.47;5.50;;;6.90;84.30;;;;;;5027199;28;20051;-65
2023/10/20 06:21:55;;;;;;;10.03;6.20;;;6.80;84.40;;;;;;5022810;28;20518;-66
2023/10/20 06:24:21;;;;;;;13.57;6.23;;;6.90;84.40;;;;;;5027776;28;20041;-65
2023/10/20 06:26:47;;;;;;;7.83;4.97;;;6.80;84.30;;;;;;5028656;28;20042;-65
2023/10/20 06:29:27;;;;;;;9.47;6.00;;;6.80;84.30;;;;;;5027785;28;20084;-66
2023/10/20 06:34:34;;;;;;;8.70;5.80;;;6.80;84.10;;;;;;5014004;28;20041;-65
2023/10/20 06:37:08;;;;;;;9.23;5.70;;;6.80;84.20;;;;;;5022384;28;20041;-64
2023/10/20 06:39:35;;;;;;;10.33;5.43;;;6.80;84.20;;;;;;5026701;28;20052;-63
2023/10/20 06:42:01;;;;;;;8.77;6.63;;;6.80;84.30;;;;;;5021348;28;20420;-64
2023/10/20 06:44:26;;;;;;;9.63;8.53;;;6.70;84.10;;;;;;5016639;28;20100;-65
2023/10/20 06:46:52;;;;;;;8.70;6.20;;;6.70;84.10;;;;;;5022833;28;20056;-64
2023/10/20 06:49:18;;;;;;;7.13;5.40;;;6.70;84.10;;;;;;5025509;28;20130;-65
2023/10/20 06:51:46;;;;;;;8.20;6.20;;;6.70;84.10;;;;;;5026212;28;20369;-64
2023/10/20 06:54:12;;;;;;;9.50;6.20;;;6.70;84.30;;;;;;5022337;28;20116;-64
2023/10/20 06:56:38;;;;;;;9.03;6.10;;;6.70;84.20;;;;;;5026034;28;20034;-64
2023/10/20 06:59:04;;;;;;;10.50;8.33;;;6.70;84.10;;;;;;5025332;28;20044;-64
2023/10/20 07:01:32;;;;;;;9.13;6.60;;;6.70;84.00;;;;;;5027686;28;20033;-65
2023/10/20 07:03:58;;;;;;;9.87;7.27;;;6.60;84.00;;;;;;5027253;28;20053;-64
2023/10/20 07:06:24;;;;;;;10.50;6.47;;;6.60;84.00;;;;;;5026501;28;20042;-64
2023/10/20 07:08:50;;;;;;;9.33;6.07;;;6.60;83.90;;;;;;5011146;28;20127;-65
2023/10/20 07:11:16;;;;;;;7.57;6.13;;;6.60;83.70;;;;;;5012030;28;20424;-65
2023/10/20 07:13:45;;;;;;;8.83;5.90;;;6.60;83.80;;;;;;5012111;28;20364;-65
2023/10/20 07:16:14;;;;;;;14.30;10.40;;;6.60;83.70;;;;;;5012110;28;21059;-65
2023/10/20 07:18:40;;;;;;;8.43;5.50;;;6.60;83.80;;;;;;5012291;28;20419;-65
2023/10/20 07:21:05;;;;;;;7.57;5.37;;;6.60;83.50;;;;;;5012407;28;20110;-65
2023/10/20 07:23:34;;;;;;;8.10;5.47;;;6.60;83.40;;;;;;5010498;28;20053;-64
2023/10/20 07:26:00;;;;;;;5.97;5.37;;;6.60;83.60;;;;;;5010091;28;20175;-65
2023/10/20 07:28:26;;;;;;;9.43;4.47;;;6.50;83.50;;;;;;5013423;28;20053;-65
2023/10/20 07:30:53;;;;;;;8.53;5.33;;;6.50;83.50;;;;;;5016203;28;20041;-65
2023/10/20 07:33:19;;;;;;;6.77;5.00;;;6.50;83.60;;;;;;5013586;28;20053;-64
2023/10/20 07:35:45;;;;;;;5.80;4.93;;;6.50;83.50;;;;;;5014153;28;20060;-64
2023/10/20 07:38:14;;;;;;;4.97;4.37;;;6.50;83.40;;;;;;5013728;28;20045;-65
2023/10/20 07:40:40;;;;;;;7.87;5.23;;;6.50;83.40;;;;;;5014509;28;20050;-64
2023/10/20 07:43:06;;;;;;;6.00;5.10;;;6.50;83.50;;;;;;5013810;28;20060;-64
2023/10/20 07:45:41;;;;;;;6.53;5.17;;;6.50;83.40;;;;;;5013682;28;20795;-65
2023/10/20 07:48:08;;;;;;;7.97;5.60;;;6.40;83.50;;;;;;5014293;28;20057;-65
2023/10/20 07:50:33;;;;;;;9.93;5.37;;;6.40;83.70;;;;;;5012836;28;20054;-64
2023/10/20 07:53:01;;;;;;;7.90;5.50;;;6.40;83.90;;;;;;5014119;28;20060;-65
2023/10/20 07:55:26;;;;;;;9.10;5.30;;;6.40;84.00;;;;;;5013825;28;20041;-64
2023/10/20 07:57:52;;;;;;;9.03;6.03;;;6.40;84.10;;;;;;5012903;28;20450;-64
2023/10/20 08:00:18;;;;;;;6.97;5.57;;;6.30;84.10;;;;;;5015123;28;20053;-64
2023/10/20 08:02:44;;;;;;;8.00;6.23;;;6.30;84.20;;;;;;5013849;28;20137;-64
2023/10/20 08:05:10;;;;;;;7.90;5.57;;;6.30;84.10;;;;;;5012064;28;20069;-64
2023/10/20 08:07:38;;;;;;;10.03;5.73;;;6.30;84.30;;;;;;5010913;28;20419;-65
2023/10/20 08:10:07;;;;;;;7.67;5.77;;;6.30;84.40;;;;;;5012296;28;20231;-65
2023/10/20 08:12:33;;;;;;;8.47;6.13;;;6.30;84.40;;;;;;5012274;28;20507;-64
2023/10/20 08:14:58;;;;;;;9.40;6.37;;;6.20;84.50;;;;;;5012605;28;20417;-65
2023/10/20 08:17:24;;;;;;;7.37;5.63;;;6.20;84.60;;;;;;5012315;28;20060;-64
2023/10/20 08:19:50;;;;;;;10.00;6.97;;;6.20;84.50;;;;;;5010627;28;20499;-64
2023/10/20 08:22:15;;;;;;;8.37;5.77;;;6.20;84.50;;;;;;5014311;28;20140;-65
2023/10/20 08:24:41;;;;;;;9.83;6.13;;;6.20;84.70;;;;;;5012358;28;20073;-65
2023/10/20 08:27:07;;;;;;;7.97;5.00;;;6.20;84.60;;;;;;5012854;28;20479;-64
2023/10/20 08:29:33;;;;;;;9.87;5.33;;;6.20;84.60;;;;;;5012564;28;20053;-64
2023/10/20 08:31:59;;;;;;;7.70;5.43;;;6.10;84.70;;;;;;5013512;28;20092;-65
2023/10/20 08:34:24;;;;;;;8.97;4.97;;;6.20;84.70;;;;;;5011301;28;20091;-64
2023/10/20 08:36:50;;;;;;;7.93;4.67;;;6.20;84.60;;;;;;5010448;28;20140;-64
2023/10/20 08:39:24;;;;;;;6.67;4.87;;;6.20;84.70;;;;;;5010783;28;20053;-64
2023/10/20 08:41:50;;;;;;;6.37;4.03;;;6.10;84.50;;;;;;5011807;28;20041;-64
2023/10/20 08:44:17;;;;;;;6.73;3.90;;;6.10;84.50;;;;;;5010537;28;20072;-64
2023/10/20 08:46:44;;;;;;;5.40;4.07;;;6.20;84.40;;;;;;5010398;28;20490;-64
2023/10/20 08:49:11;;;;;;;6.53;4.00;;;6.10;84.50;;;;;;5010952;28;20088;-65
2023/10/20 08:51:38;;;;;;;4.17;3.63;;;6.10;84.40;;;;;;5011632;28;20057;-65
2023/10/20 08:54:08;;;;;;;6.27;5.27;;;6.10;84.50;;;;;;5012187;28;20057;-65
2023/10/20 08:56:34;;;;;;;4.27;2.77;;;6.10;84.60;;;;;;5011966;28;20388;-65
2023/10/20 08:59:00;;;;;;;6.63;3.97;;;6.10;84.60;;;;;;5008479;28;20056;-65
2023/10/20 09:01:26;;;;;;;6.60;4.57;;;6.10;84.50;;;;;;5009479;28;20183;-64
2023/10/20 09:03:59;;;;;;;5.07;3.60;;;6.10;84.40;;;;;;5010664;28;20421;-65
2023/10/20 09:06:26;;;;;;;6.03;3.77;;;6.10;84.70;;;;;;5013654;28;20123;-65
2023/10/20 09:08:52;;;;;;;5.70;5.20;;;6.10;84.90;;;;;;5013834;28;20076;-65
2023/10/20 09:11:19;;;;;;;7.00;4.07;;;6.10;84.90;;;;;;5013566;28;20057;-65
2023/10/20 09:13:47;;;;;;;5.10;3.20;;;6.10;85.00;;;;;;5011555;28;20104;-65
2023/10/20 09:16:14;;;;;;;8.47;3.53;;;6.10;85.10;;;;;;5011120;28;20046;-65
2023/10/20 09:18:48;;;;;;;8.27;3.27;;;6.10;85.20;;;;;;5010757;28;20053;-65
2023/10/20 09:21:19;;;;;;;5.57;3.70;;;6.10;85.30;;;;;;5010691;28;20095;-65
2023/10/20 09:23:59;;;;;;;5.05;3.25;;;6.10;85.30;;;;;;4960904;28;20056;-66
2023/10/20 09:26:27;;;;;;;4.83;2.83;;;6.00;85.30;;;;;;5008030;28;20103;-65
2023/10/20 09:28:54;;;;;;;5.00;2.90;;;6.00;85.30;;;;;;5002709;28;20597;-65
2023/10/20 09:31:22;;;;;;;5.20;2.53;;;6.00;85.20;;;;;;5007754;28;20107;-65
2023/10/20 09:33:48;;;;;;;4.33;3.00;;;6.00;85.10;;;;;;5008130;28;20049;-65
2023/10/20 09:36:14;;;;;;;4.60;2.63;;;6.00;85.10;;;;;;5008185;28;20068;-65
2023/10/20 09:38:44;;;;;;;4.00;3.20;;;5.90;85.00;;;;;;5007893;28;20061;-64
2023/10/20 09:41:15;;;;;;;6.17;2.87;;;5.90;85.00;;;;;;5009285;28;20510;-65
2023/10/20 09:44:00;;;;;;;7.30;3.63;;;5.90;85.00;;;;;;5006716;28;20049;-65
2023/10/20 09:46:41;;;;;;;4.60;3.20;;;5.90;85.00;;;;;;5008459;28;20444;-65
2023/10/20 09:49:22;;;;;;;8.32;3.30;;;5.90;85.00;;;;;;5008080;28;20050;-65
2023/10/20 09:51:49;;;;;;;6.17;4.17;;;5.90;85.20;;;;;;5008078;28;20053;-64
2023/10/20 09:54:18;;;;;;;4.50;3.73;;;5.90;85.30;;;;;;5006912;28;20052;-65
2023/10/20 09:56:45;;;;;;;8.30;3.60;;;5.80;85.30;;;;;;5008880;28;20132;-65
2023/10/20 09:59:20;;;;;;;7.30;3.80;;;5.80;85.20;;;;;;5009702;28;20094;-65
2023/10/20 10:01:51;;;;;;;6.93;3.53;;;5.80;85.20;;;;;;5008060;28;20396;-64
2023/10/20 10:04:24;;;;;;;6.33;4.93;;;5.80;85.30;;;;;;5009225;28;20057;-65
2023/10/20 10:06:51;;;;;;;4.43;3.60;;;5.80;85.40;;;;;;5006509;28;20069;-65
2023/10/20 10:09:18;;;;;;;4.50;2.67;;;5.80;85.40;;;;;;5008875;28;20061;-64
2023/10/20 10:11:45;;;;;;;4.90;2.30;;;5.80;85.20;;;;;;5005824;28;20518;-65
2023/10/20 10:14:22;;;;;;;3.60;3.20;;;5.80;85.10;;;;;;5008432;28;20365;-65
2023/10/20 10:16:53;;;;;;;5.03;2.47;;;5.80;85.10;;;;;;5004954;28;20049;-64
2023/10/20 10:19:19;;;;;;;3.85;3.35;;;5.80;85.00;;;;;;5004630;28;20084;-65
2023/10/20 10:21:53;;;;;;;3.13;2.27;;;5.80;85.10;;;;;;5010726;28;20492;-64
2023/10/20 10:24:21;;;;;;;4.33;2.67;;;5.80;85.00;;;;;;5010884;28;20399;-65
2023/10/20 10:26:51;;;;;;;3.93;2.27;;;5.70;85.10;;;;;;5010243;28;20061;-65
2023/10/20 10:29:18;;;;;;;4.50;2.53;;;5.70;84.90;;;;;;5009950;28;20064;-65
2023/10/20 10:31:44;;;;;;;4.87;2.60;;;5.80;85.00;;;;;;5009909;28;20128;-65
2023/10/20 10:34:10;;;;;;;3.63;2.70;;;5.70;85.00;;;;;;5009137;28;20127;-65
2023/10/20 10:37:02;;;;;;;3.80;1.90;;;5.70;84.80;;;;;;5005835;28;20053;-65
2023/10/20 10:39:28;;;;;;;3.17;2.13;;;5.70;84.70;;;;;;5001893;28;20589;-65
2023/10/20 10:42:01;;;;;;;3.60;2.30;;;5.70;84.90;;;;;;5006733;28;20041;-65
2023/10/20 10:44:39;;;;;;;4.83;2.50;;;5.70;85.00;;;;;;5004882;28;20061;-65
2023/10/20 10:47:16;;;;;;;4.93;2.73;;;5.70;85.00;;;;;;5007471;28;20076;-65
2023/10/20 10:49:47;;;;;;;4.27;2.80;;;5.70;84.90;;;;;;5008949;28;20045;-66
2023/10/20 10:52:13;;;;;;;4.60;2.33;;;5.70;84.80;;;;;;5022213;28;20081;-65
2023/10/20 10:54:38;;;;;;;6.43;5.73;;;5.60;84.70;;;;;;5005806;28;20083;-66
2023/10/20 10:57:05;;;;;;;5.70;3.23;;;5.60;84.90;;;;;;5008133;28;20053;-66
2023/10/20 10:59:31;;;;;;;3.67;2.43;;;5.60;84.90;;;;;;5011541;28;20146;-65
2023/10/20 11:02:00;;;;;;;3.67;1.87;;;5.60;84.70;;;;;;5008462;28;20171;-67
2023/10/20 11:04:27;;;;;;;4.07;2.93;;;5.60;84.80;;;;;;5015100;28;20057;-66
2023/10/20 11:06:52;;;;;;;2.33;2.00;;;5.60;84.90;;;;;;5014602;28;20084;-65
2023/10/20 11:09:27;;;;;;;5.47;1.80;;;5.60;85.00;;;;;;5013722;28;20042;-65
2023/10/20 11:11:53;;;;;;;3.53;1.63;;;5.60;85.10;;;;;;5014306;28;20060;-65
2023/10/20 11:14:21;;;;;;;3.83;2.13;;;5.60;85.20;;;;;;5013422;28;20434;-65
2023/10/20 11:16:47;;;;;;;3.23;1.80;;;5.60;85.30;;;;;;5014392;28;20135;-65
2023/10/20 11:19:14;;;;;;;3.33;2.07;;;5.60;85.40;;;;;;5012616;28;20052;-64
2023/10/20 11:21:48;;;;;;;5.03;2.27;;;5.60;85.50;;;;;;5013602;28;20908;-64
2023/10/20 11:24:24;;;;;;;3.50;3.17;;;5.50;85.70;;;;;;5013953;28;20052;-64
2023/10/20 11:27:11;;;;;;;5.93;1.70;;;5.50;85.70;;;;;;5013944;28;20045;-65
2023/10/20 11:29:37;;;;;;;2.87;1.60;;;5.50;85.80;;;;;;5014049;28;20054;-65
2023/10/20 11:32:07;;;;;;;2.20;1.80;;;5.50;86.00;;;;;;5013642;28;20390;-65
2023/10/20 11:34:37;;;;;;;2.67;1.88;;;5.50;85.90;;;;;;5008320;28;20144;-65
2023/10/20 11:37:04;;;;;;;2.67;1.93;;;5.50;85.90;;;;;;5011605;28;20141;-65
2023/10/20 11:39:31;;;;;;;3.47;1.80;;;5.50;86.10;;;;;;5012434;28;20113;-64
2023/10/20 11:41:57;;;;;;;3.93;1.73;;;5.40;86.20;;;;;;5012456;28;20091;-65
2023/10/20 11:44:24;;;;;;;5.13;4.73;;;5.50;86.20;;;;;;5011903;28;20046;-65
2023/10/20 11:46:52;;;;;;;1.90;1.50;;;5.40;86.10;;;;;;5012053;28;20052;-66
2023/10/20 11:49:18;;;;;;;2.50;1.80;;;5.40;86.00;;;;;;5012202;28;20569;-64
2023/10/20 11:51:44;;;;;;;4.93;3.77;;;5.40;86.20;;;;;;5010854;28;20063;-65
2023/10/20 11:54:10;;;;;;;2.67;1.53;;;5.50;86.20;;;;;;5013569;28;21791;-64
2023/10/20 11:56:37;;;;;;;3.90;3.30;;;5.50;86.30;;;;;;5013330;28;20408;-65
2023/10/20 11:59:02;;;;;;;6.80;5.47;;;5.50;86.20;;;;;;5010999;28;20443;-64
2023/10/20 12:01:31;;;;;;;3.83;1.90;;;5.50;86.30;;;;;;5012837;28;20498;-64
2023/10/20 12:04:02;;;;;;;4.43;1.90;;;5.50;86.20;;;;;;5013554;28;20120;-64
2023/10/20 12:06:28;;;;;;;4.00;1.23;;;5.50;86.30;;;;;;5009512;28;20963;-64
2023/10/20 12:08:53;;;;;;;4.20;2.50;;;5.40;86.30;;;;;;5013573;28;20054;-65
2023/10/20 12:11:19;;;;;;;6.67;1.33;;;5.50;86.30;;;;;;5013337;28;20470;-64
2023/10/20 12:13:48;;;;;;;5.53;3.23;;;5.40;86.30;;;;;;5009761;28;20062;-64
2023/10/20 12:16:14;;;;;;;2.77;2.37;;;5.50;86.50;;;;;;5008334;28;20061;-64
2023/10/20 12:18:42;;;;;;;6.97;3.50;;;5.50;86.40;;;;;;5009620;28;20060;-64
2023/10/20 12:21:08;;;;;;;3.50;2.13;;;5.50;86.40;;;;;;5010931;28;20404;-64
2023/10/20 12:23:34;;;;;;;3.47;1.87;;;5.50;86.40;;;;;;5010510;28;20048;-64
2023/10/20 12:26:00;;;;;;;3.77;1.77;;;5.50;86.40;;;;;;5012725;28;20053;-64
2023/10/20 12:28:26;;;;;;;3.90;3.33;;;5.50;86.40;;;;;;5010145;28;20058;-65
2023/10/20 12:30:52;;;;;;;2.50;2.20;;;5.50;86.40;;;;;;5011757;28;20056;-65
2023/10/20 12:33:17;;;;;;;1.53;1.37;;;5.50;86.40;;;;;;5011452;28;20053;-65
2023/10/20 12:35:43;;;;;;;6.03;2.03;;;5.50;86.10;;;;;;5012012;28;20084;-66
2023/10/20 12:38:10;;;;;;;2.20;1.60;;;5.50;86.30;;;;;;5010322;28;20107;-65
2023/10/20 12:40:40;;;;;;;3.80;3.13;;;5.40;86.30;;;;;;5007397;28;20049;-65
2023/10/20 12:43:09;;;;;;;5.97;4.53;;;5.40;86.40;;;;;;5009429;28;20056;-65
2023/10/20 12:45:38;;;;;;;2.77;1.97;;;5.50;86.50;;;;;;5009718;28;20045;-65
2023/10/20 12:48:05;;;;;;;8.27;7.47;;;5.50;86.60;;;;;;5010594;28;20072;-65
2023/10/20 12:50:32;;;;;;;2.37;2.17;;;5.50;86.50;;;;;;5011335;28;20102;-65
2023/10/20 12:53:01;;;;;;;2.77;1.67;;;5.50;86.50;;;;;;5010112;28;20149;-64
2023/10/20 12:55:27;;;;;;;3.43;1.30;;;5.50;86.50;;;;;;5012095;28;20054;-65
2023/10/20 12:57:53;;;;;;;2.17;1.07;;;5.50;86.50;;;;;;5013139;28;20425;-65
2023/10/20 13:00:20;;;;;;;3.80;3.50;;;5.50;86.60;;;;;;5012624;28;20061;-65
2023/10/20 13:02:50;;;;;;;3.30;1.63;;;5.50;86.60;;;;;;5012463;28;20057;-65
2023/10/20 13:05:16;;;;;;;2.20;1.80;;;5.50;86.50;;;;;;5011757;28;20507;-65
2023/10/20 13:07:42;;;;;;;5.23;3.10;;;5.50;86.40;;;;;;5011335;28;20061;-64
2023/10/20 13:10:09;;;;;;;2.90;1.40;;;5.50;86.50;;;;;;5011787;28;20056;-64
2023/10/20 13:12:35;;;;;;;3.50;2.90;;;5.50;86.50;;;;;;5009851;28;20064;-65
2023/10/20 13:15:01;;;;;;;2.90;1.20;;;5.50;86.50;;;;;;5009116;28;20041;-65
2023/10/20 13:17:27;;;;;;;4.97;2.40;;;5.50;86.50;;;;;;5008898;28;20045;-65
2023/10/20 13:19:53;;;;;;;3.97;2.00;;;5.50;86.50;;;;;;5009743;28;20064;-64
2023/10/20 13:22:19;;;;;;;5.80;3.67;;;5.40;86.60;;;;;;5009365;28;20500;-65
2023/10/20 13:24:44;;;;;;;3.03;2.83;;;5.40;86.50;;;;;;5009523;28;20140;-65